Time;durP1;ratioP1;P1;durP2;ratioP2;P2;SDS_P1;SDS_P2;PMS_P1;PMS_P2;Temp;Humidity;BMP_temperature;BMP_pressure;BME280_temperature;BME280_humidity;BME280_pressure;Samples;Min_cycle;Max_cycle;Signal;HPM_P1;HPM_P2
2021/04/01 00:00:11;;;;;;;30.85;17.30;;;;;;;17.93;36.80;101291.28;348176;28;1073;-63
2021/04/01 00:00:23;;;;;;;31.45;17.42;;;;;;;17.96;36.99;101285.72;347981;28;23153;-64
2021/04/01 00:00:52;;;;;;;29.52;17.67;;;;;;;17.95;36.25;101294.69;348141;28;33249;-64
2021/04/01 00:01:09;;;;;;;31.02;18.10;;;;;;;17.99;36.80;101296.19;350644;28;1576;-64
2021/04/01 00:01:20;;;;;;;31.90;18.05;;;;;;;18.00;36.39;101297.91;348403;28;71514;-64
2021/04/01 00:01:32;;;;;;;30.30;17.58;;;;;;;17.96;36.10;101291.91;350879;28;1145;-64
2021/04/01 00:01:44;;;;;;;31.42;17.77;;;;;;;18.02;36.97;101284.44;350868;28;1081;-65
2021/04/01 00:01:55;;;;;;;30.85;17.95;;;;;;;17.98;36.73;101289.13;350955;28;1076;-65
2021/04/01 00:02:06;;;;;;;33.38;17.95;;;;;;;17.96;36.51;101285.72;349566;28;1191;-64
2021/04/01 00:02:18;;;;;;;30.86;17.48;;;;;;;18.00;36.69;101291.69;349438;28;1032;-64
2021/04/01 00:02:29;;;;;;;29.85;17.27;;;;;;;17.99;36.91;101290.84;349521;28;1160;-64
2021/04/01 00:02:42;;;;;;;30.65;17.35;;;;;;;18.00;36.84;101289.88;349560;28;1081;-64
2021/04/01 00:02:54;;;;;;;34.20;18.05;;;;;;;18.00;36.29;101286.34;348718;28;24344;-65
2021/04/01 00:03:05;;;;;;;32.50;18.30;;;;;;;18.02;37.05;101292.44;349517;28;2052;-63
2021/04/01 00:03:17;;;;;;;32.85;18.02;;;;;;;18.02;36.92;101290.63;349345;28;1137;-64
2021/04/01 00:03:28;;;;;;;32.60;17.70;;;;;;;18.03;36.45;101292.34;349470;28;1193;-64
2021/04/01 00:03:45;;;;;;;33.30;17.63;;;;;;;18.05;36.29;101293.09;349499;28;1208;-64
2021/04/01 00:03:56;;;;;;;32.08;17.55;;;;;;;18.03;36.54;101287.00;347128;28;71945;-64
2021/04/01 00:04:07;;;;;;;30.13;17.35;;;;;;;18.02;36.79;101295.97;349588;28;1073;-63
2021/04/01 00:04:18;;;;;;;31.40;17.58;;;;;;;18.04;36.96;101288.72;349599;28;1130;-64
2021/04/01 00:04:47;;;;;;;34.92;18.77;;;;;;;18.03;36.63;101287.00;348539;28;33261;-65
2021/04/01 00:04:58;;;;;;;35.13;18.45;;;;;;;18.03;36.68;101281.66;349754;28;1112;-64
2021/04/01 00:05:10;;;;;;;35.20;18.38;;;;;;;18.05;37.00;101289.56;349482;28;1125;-64
2021/04/01 00:05:27;;;;;;;35.42;18.55;;;;;;;18.06;37.01;101286.75;349591;28;1089;-64
2021/04/01 00:05:39;;;;;;;31.92;18.67;;;;;;;18.03;36.74;101281.66;347207;28;71669;-64
2021/04/01 00:05:50;;;;;;;31.70;18.05;;;;;;;18.02;36.42;101287.09;349598;28;1044;-64
2021/04/01 00:06:01;;;;;;;30.77;18.35;;;;;;;18.01;36.87;101288.94;349613;28;1147;-64
2021/04/01 00:06:14;;;;;;;32.35;18.90;;;;;;;17.98;36.88;101286.44;349651;28;1061;-64
2021/04/01 00:06:25;;;;;;;31.00;18.88;;;;;;;17.96;36.99;101291.91;349642;28;1064;-65
2021/04/01 00:06:37;;;;;;;29.98;18.10;;;;;;;17.93;36.68;101292.13;349652;28;1111;-65
2021/04/01 00:06:48;;;;;;;29.35;17.65;;;;;;;17.96;36.46;101291.06;349648;28;1057;-64
2021/04/01 00:06:59;;;;;;;31.98;18.02;;;;;;;17.96;36.67;101283.88;349581;28;1163;-64
2021/04/01 00:07:12;;;;;;;32.84;18.04;;;;;;;17.98;36.73;101291.78;349315;28;1674;-64
2021/04/01 00:07:23;;;;;;;32.42;17.45;;;;;;;17.91;36.35;101294.03;349824;28;1910;-64
2021/04/01 00:07:34;;;;;;;31.73;17.25;;;;;;;17.87;36.85;101286.31;351045;28;1199;-65
2021/04/01 00:07:46;;;;;;;29.92;17.48;;;;;;;17.87;36.92;101286.31;350938;28;1410;-65
2021/04/01 00:07:58;;;;;;;28.50;17.45;;;;;;;17.82;36.84;101289.31;349510;28;1813;-64
2021/04/01 00:08:27;;;;;;;31.50;17.00;;;;;;;17.74;37.05;101289.84;348551;28;33290;-65
2021/04/01 00:08:40;;;;;;;31.70;16.95;;;;;;;17.76;36.87;101287.94;349626;28;1137;-65
2021/04/01 00:08:51;;;;;;;31.30;17.20;;;;;;;17.71;37.00;101286.50;349462;28;1110;-65
2021/04/01 00:09:03;;;;;;;30.00;17.20;;;;;;;17.69;36.99;101293.78;349317;28;1073;-65
2021/04/01 00:09:14;;;;;;;28.13;16.38;;;;;;;17.70;36.96;101291.00;349257;28;1021;-65
2021/04/01 00:09:25;;;;;;;27.92;16.27;;;;;;;17.72;36.85;101296.25;349299;28;1037;-64
2021/04/01 00:09:36;;;;;;;29.23;16.55;;;;;;;17.71;37.00;101290.06;349324;28;1061;-65
2021/04/01 00:10:09;;;;;;;30.92;16.85;;;;;;;17.68;36.55;101292.06;348461;28;33349;-65
2021/04/01 00:10:41;;;;;;;28.42;16.80;;;;;;;17.69;36.74;101291.97;348324;28;34241;-65
2021/04/01 00:10:52;;;;;;;29.35;16.30;;;;;;;17.68;36.93;101284.94;347910;28;48180;-64
2021/04/01 00:11:03;;;;;;;29.23;16.30;;;;;;;17.62;36.76;101293.34;349677;28;1065;-64
2021/04/01 00:11:15;;;;;;;29.13;16.60;;;;;;;17.68;37.29;101290.28;349577;28;1192;-66
2021/04/01 00:11:26;;;;;;;29.50;16.85;;;;;;;17.70;37.20;101291.00;349511;28;1149;-65
2021/04/01 00:11:37;;;;;;;28.70;16.70;;;;;;;17.74;37.00;101289.84;349582;28;1059;-66
2021/04/01 00:11:48;;;;;;;29.05;16.73;;;;;;;17.73;37.05;101282.78;349505;28;1113;-65
2021/04/01 00:11:59;;;;;;;27.48;16.33;;;;;;;17.73;36.97;101285.44;349658;28;1155;-65
2021/04/01 00:12:10;;;;;;;29.83;16.27;;;;;;;17.76;36.93;101290.59;349656;28;1077;-66
2021/04/01 00:12:22;;;;;;;27.98;16.17;;;;;;;17.74;36.90;101287.16;349636;28;1101;-66
2021/04/01 00:12:33;;;;;;;27.95;15.65;;;;;;;17.78;36.87;101293.16;349284;28;1223;-65
2021/04/01 00:13:02;;;;;;;29.85;16.25;;;;;;;17.85;37.19;101288.25;348451;28;33257;-65
2021/04/01 00:13:14;;;;;;;27.08;16.15;;;;;;;17.85;37.11;101288.25;349489;28;1150;-66
2021/04/01 00:13:25;;;;;;;30.10;16.40;;;;;;;17.86;36.90;101287.28;349476;28;1053;-66
2021/04/01 00:13:36;;;;;;;32.30;16.90;;;;;;;17.88;37.00;101293.38;349458;28;850;-65
2021/04/01 00:13:47;;;;;;;30.90;17.02;;;;;;;17.89;36.98;101292.44;349460;28;1136;-65
2021/04/01 00:14:02;;;;;;;29.02;16.90;;;;;;;17.88;36.96;101286.19;348063;28;1161;-66
2021/04/01 00:14:13;;;;;;;27.50;16.33;;;;;;;17.86;37.00;101295.28;346567;28;48336;-66
2021/04/01 00:14:25;;;;;;;26.95;15.82;;;;;;;17.83;37.12;101284.81;348134;28;1045;-66
2021/04/01 00:14:37;;;;;;;27.58;15.75;;;;;;;17.81;37.04;101282.25;349458;28;1093;-66
2021/04/01 00:14:49;;;;;;;27.90;16.10;;;;;;;17.73;36.84;101282.78;349516;28;1201;-66
2021/04/01 00:15:00;;;;;;;28.23;16.20;;;;;;;17.67;36.58;101287.69;349505;28;1156;-66
2021/04/01 00:15:13;;;;;;;30.70;16.48;;;;;;;17.68;36.87;101284.06;348139;28;1089;-65
2021/04/01 00:15:24;;;;;;;32.28;16.27;;;;;;;17.71;37.54;101284.72;348015;28;1076;-66
2021/04/01 00:15:37;;;;;;;31.00;15.88;;;;;;;17.72;37.11;101285.56;348192;28;983;-65
2021/04/01 00:15:49;;;;;;;27.42;15.50;;;;;;;17.65;37.04;101287.78;345928;28;23765;-65
2021/04/01 00:16:00;;;;;;;28.90;15.98;;;;;;;17.67;37.11;101285.88;346623;28;1344;-66
2021/04/01 00:16:11;;;;;;;29.25;16.08;;;;;;;17.59;36.89;101282.88;346800;28;1131;-66
2021/04/01 00:16:22;;;;;;;29.80;16.20;;;;;;;17.55;37.07;101290.22;345269;28;1184;-66
2021/04/01 00:16:34;;;;;;;28.65;15.85;;;;;;;17.55;36.82;101278.69;345419;28;1149;-65
2021/04/01 00:16:45;;;;;;;28.33;15.52;;;;;;;17.55;37.18;101281.38;345376;28;1006;-66
2021/04/01 00:16:56;;;;;;;26.58;15.38;;;;;;;17.60;37.54;101287.28;345381;28;1204;-65
2021/04/01 00:17:09;;;;;;;24.45;15.10;;;;;;;17.57;36.78;101283.00;346035;28;1126;-66
2021/04/01 00:17:21;;;;;;;26.13;15.40;;;;;;;17.54;37.26;101285.84;346692;28;1045;-66
2021/04/01 00:17:32;;;;;;;26.83;15.43;;;;;;;17.55;37.18;101282.22;346725;28;1069;-65
2021/04/01 00:17:43;;;;;;;28.48;15.80;;;;;;;17.60;37.47;101279.25;347119;28;1224;-65
2021/04/01 00:17:55;;;;;;;26.63;15.73;;;;;;;17.63;37.48;101279.88;348545;28;1045;-66
2021/04/01 00:18:07;;;;;;;26.58;15.50;;;;;;;17.62;37.36;101277.31;349490;28;1699;-65
2021/04/01 00:18:37;;;;;;;24.55;15.00;;;;;;;17.56;36.96;101283.09;348488;28;33299;-66
2021/04/01 00:18:48;;;;;;;25.25;14.75;;;;;;;17.55;37.37;101281.38;349465;28;1149;-66
2021/04/01 00:19:00;;;;;;;27.75;15.02;;;;;;;17.56;37.08;101277.75;349528;28;1085;-66
2021/04/01 00:19:13;;;;;;;26.70;15.15;;;;;;;17.54;37.30;101282.31;349399;28;1076;-66
2021/04/01 00:19:24;;;;;;;24.42;15.20;;;;;;;17.53;36.99;101281.47;349472;28;1184;-65
2021/04/01 00:19:36;;;;;;;24.05;15.32;;;;;;;17.50;37.41;101272.81;349460;28;1134;-66
2021/04/01 00:19:47;;;;;;;24.98;15.35;;;;;;;17.53;37.37;101277.94;349427;28;1158;-65
2021/04/01 00:20:16;;;;;;;29.60;15.32;;;;;;;17.59;37.51;101274.88;348418;28;33174;-66
2021/04/01 00:20:46;;;;;;;24.58;15.00;;;;;;;17.57;37.08;101280.31;349200;28;33297;-66
2021/04/01 00:20:58;;;;;;;24.88;15.10;;;;;;;17.51;36.92;101279.88;350872;28;1073;-66
2021/04/01 00:21:09;;;;;;;25.10;14.90;;;;;;;17.49;37.17;101284.44;350828;28;1160;-66
2021/04/01 00:21:38;;;;;;;27.25;14.75;;;;;;;17.49;37.35;101279.09;348972;28;56111;-66
2021/04/01 00:22:07;;;;;;;27.40;15.23;;;;;;;17.49;37.21;101279.97;349797;28;34338;-66
2021/04/01 00:22:18;;;;;;;26.88;15.10;;;;;;;17.45;36.99;101282.00;350906;28;1172;-66
2021/04/01 00:22:29;;;;;;;25.17;14.75;;;;;;;17.44;37.46;101274.94;349624;28;1056;-66
2021/04/01 00:22:40;;;;;;;25.48;14.68;;;;;;;17.38;37.14;101279.81;349510;28;1236;-65
2021/04/01 00:23:11;;;;;;;29.73;14.95;;;;;;;17.37;37.74;101270.13;348534;28;33219;-66
2021/04/01 00:23:23;;;;;;;28.15;14.77;;;;;;;17.39;37.47;101279.75;349578;28;1106;-66
2021/04/01 00:23:34;;;;;;;25.88;14.85;;;;;;;17.38;37.40;101279.81;349614;28;1072;-66
2021/04/01 00:23:45;;;;;;;23.38;14.93;;;;;;;17.43;37.54;101275.91;349485;28;1109;-65
2021/04/01 00:23:56;;;;;;;24.65;14.73;;;;;;;17.49;37.43;101279.97;349584;28;1137;-66
2021/04/01 00:24:07;;;;;;;28.75;14.70;;;;;;;17.43;36.86;101273.25;349658;28;1123;-65
2021/04/01 00:24:19;;;;;;;27.92;14.43;;;;;;;17.44;37.57;101280.28;349578;28;1174;-66
2021/04/01 00:24:30;;;;;;;28.63;14.27;;;;;;;17.40;37.14;101278.78;349651;28;1033;-66
2021/04/01 00:24:45;;;;;;;25.48;14.50;;;;;;;17.39;37.39;101277.09;347889;28;47884;-65
2021/04/01 00:24:56;;;;;;;25.73;14.88;;;;;;;17.41;37.86;101269.81;349530;28;1050;-65
2021/04/01 00:25:10;;;;;;;24.30;15.25;;;;;;;17.46;37.51;101275.69;349488;28;1138;-66
2021/04/01 00:25:23;;;;;;;26.23;15.30;;;;;;;17.39;37.43;101276.22;348587;28;25441;-66
2021/04/01 00:25:34;;;;;;;27.88;15.23;;;;;;;17.42;37.78;101278.66;349524;28;1191;-65
2021/04/01 00:25:45;;;;;;;27.82;15.24;;;;;;;17.35;37.75;101270.25;349326;28;1914;-65
2021/04/01 00:25:57;;;;;;;23.95;14.77;;;;;;;17.37;37.43;101273.63;349499;28;1069;-65
2021/04/01 00:26:09;;;;;;;23.85;14.50;;;;;;;17.35;37.57;101283.59;349532;28;1085;-65
2021/04/01 00:26:20;;;;;;;23.65;14.40;;;;;;;17.30;37.65;101278.53;349464;28;1142;-65
2021/04/01 00:26:31;;;;;;;24.75;14.38;;;;;;;17.34;37.45;101278.31;349493;28;1144;-65
2021/04/01 00:26:43;;;;;;;22.77;14.32;;;;;;;17.35;37.64;101270.25;347981;28;1146;-65
2021/04/01 00:26:54;;;;;;;24.58;14.52;;;;;;;17.37;37.78;101276.31;348996;28;1169;-65
2021/04/01 00:27:06;;;;;;;23.90;14.52;;;;;;;17.38;37.34;101274.50;348080;28;1551;-65
2021/04/01 00:27:17;;;;;;;23.80;14.30;;;;;;;17.30;37.48;101273.19;348094;28;1130;-65
2021/04/01 00:27:28;;;;;;;25.10;13.88;;;;;;;17.30;37.56;101272.34;348135;28;786;-66
2021/04/01 00:27:40;;;;;;;25.92;13.93;;;;;;;17.29;37.48;101279.50;347883;28;1114;-66
2021/04/01 00:27:51;;;;;;;25.00;14.20;;;;;;;17.29;37.22;101275.97;348063;28;1045;-66
2021/04/01 00:28:02;;;;;;;23.48;14.73;;;;;;;17.33;37.87;101282.81;348129;28;1248;-65
2021/04/01 00:28:13;;;;;;;23.17;14.45;;;;;;;17.33;37.38;101277.47;348150;28;1109;-66
2021/04/01 00:28:25;;;;;;;23.60;14.32;;;;;;;17.35;37.86;101286.25;348071;28;1215;-66
2021/04/01 00:28:36;;;;;;;25.00;14.30;;;;;;;17.32;37.62;101275.75;348527;28;1077;-65
2021/04/01 00:28:48;;;;;;;25.65;14.57;;;;;;;17.32;37.91;101280.25;349391;28;1711;-66
2021/04/01 00:28:59;;;;;;;26.90;14.43;;;;;;;17.32;37.81;101277.59;349282;28;1903;-65
2021/04/01 00:29:10;;;;;;;26.35;14.38;;;;;;;17.29;37.54;101279.50;349512;28;1188;-65
2021/04/01 00:29:22;;;;;;;26.75;14.43;;;;;;;17.32;37.29;101267.75;349529;28;1159;-66
2021/04/01 00:29:33;;;;;;;27.45;14.48;;;;;;;17.27;37.41;101275.22;349686;28;1132;-65
2021/04/01 00:29:44;;;;;;;27.80;14.32;;;;;;;17.23;37.44;101276.41;349645;28;961;-65
2021/04/01 00:29:55;;;;;;;27.45;14.52;;;;;;;17.23;37.01;101279.91;349550;28;1057;-65
2021/04/01 00:30:08;;;;;;;25.48;14.10;;;;;;;17.24;37.97;101273.63;349590;28;1167;-67
2021/04/01 00:30:20;;;;;;;27.63;13.90;;;;;;;17.30;38.08;101272.34;349530;28;1156;-65
2021/04/01 00:30:31;;;;;;;28.15;13.85;;;;;;;17.29;37.69;101273.31;349593;28;1179;-65
2021/04/01 00:30:43;;;;;;;27.25;13.75;;;;;;;17.23;37.63;101277.25;349612;28;1065;-66
2021/04/01 00:30:54;;;;;;;24.23;13.70;;;;;;;17.28;38.03;101274.25;349630;28;1108;-65
2021/04/01 00:31:05;;;;;;;23.38;13.60;;;;;;;17.34;38.01;101272.97;349534;28;1305;-65
2021/04/01 00:31:34;;;;;;;23.75;14.02;;;;;;;17.25;37.73;101277.13;348521;28;33235;-66
2021/04/01 00:31:46;;;;;;;24.67;13.88;;;;;;;17.27;37.91;101278.75;349411;28;1100;-66
2021/04/01 00:31:57;;;;;;;26.60;14.18;;;;;;;17.29;37.92;101275.97;349450;28;1073;-65
2021/04/01 00:32:08;;;;;;;27.20;14.20;;;;;;;17.30;37.81;101283.03;349377;28;1308;-65
2021/04/01 00:32:19;;;;;;;25.80;14.10;;;;;;;17.26;37.77;101270.84;349490;28;1057;-66
2021/04/01 00:32:31;;;;;;;23.38;13.65;;;;;;;17.26;37.64;101282.38;349430;28;965;-65
2021/04/01 00:32:42;;;;;;;23.33;13.63;;;;;;;17.26;38.20;101277.03;348104;28;1144;-66
2021/04/01 00:32:53;;;;;;;24.42;13.73;;;;;;;17.32;37.59;101278.44;348149;28;1033;-66
2021/04/01 00:33:05;;;;;;;24.08;13.90;;;;;;;17.27;37.41;101278.75;348082;28;1069;-67
2021/04/01 00:33:16;;;;;;;23.42;13.55;;;;;;;17.27;37.78;101277.91;348096;28;1074;-65
2021/04/01 00:33:27;;;;;;;21.30;13.15;;;;;;;17.32;37.97;101280.25;346709;28;1146;-66
2021/04/01 00:33:38;;;;;;;21.05;13.68;;;;;;;17.38;37.92;101277.16;346886;28;1073;-66
2021/04/01 00:33:50;;;;;;;21.48;13.85;;;;;;;17.39;38.10;101276.22;348066;28;1073;-65
2021/04/01 00:34:01;;;;;;;22.42;13.85;;;;;;;17.39;37.70;101273.53;348129;28;1203;-66
2021/04/01 00:34:12;;;;;;;22.85;13.48;;;;;;;17.40;37.88;101278.78;348072;28;1135;-66
2021/04/01 00:34:23;;;;;;;22.92;13.38;;;;;;;17.41;38.14;101276.97;348102;28;1154;-66
2021/04/01 00:34:34;;;;;;;22.88;13.77;;;;;;;17.40;38.01;101270.75;348198;28;1143;-66
2021/04/01 00:34:45;;;;;;;24.25;14.10;;;;;;;17.44;38.05;101276.75;349506;28;1155;-65
2021/04/01 00:34:57;;;;;;;24.10;14.30;;;;;;;17.46;37.74;101270.34;349477;28;1034;-65
2021/04/01 00:35:08;;;;;;;22.88;14.18;;;;;;;17.50;37.62;101278.16;349170;28;1318;-65
2021/04/01 00:35:19;;;;;;;23.48;14.35;;;;;;;17.52;37.86;101277.09;350189;28;1313;-66
2021/04/01 00:35:30;;;;;;;24.35;14.25;;;;;;;17.55;37.95;101276.03;349697;28;1144;-66
2021/04/01 00:35:42;;;;;;;24.83;14.35;;;;;;;17.55;37.61;101276.03;349645;28;1103;-66
2021/04/01 00:35:53;;;;;;;24.70;14.52;;;;;;;17.52;37.38;101282.44;349439;28;1208;-65
2021/04/01 00:36:04;;;;;;;25.35;14.77;;;;;;;17.48;37.22;101280.94;349654;28;1024;-66
2021/04/01 00:36:16;;;;;;;25.63;14.70;;;;;;;17.48;37.97;101274.75;349667;28;1223;-65
2021/04/01 00:36:27;;;;;;;24.40;14.25;;;;;;;17.46;37.74;101281.03;349582;28;1100;-66
2021/04/01 00:36:38;;;;;;;25.20;14.18;;;;;;;17.45;37.11;101275.81;349558;28;1310;-66
2021/04/01 00:36:49;;;;;;;24.38;14.40;;;;;;;17.45;37.73;101270.47;349517;28;1120;-66
2021/04/01 00:37:00;;;;;;;23.45;14.45;;;;;;;17.46;37.74;101275.69;349641;28;1084;-66
2021/04/01 00:37:11;;;;;;;23.25;14.27;;;;;;;17.49;37.90;101279.97;349665;28;1029;-65
2021/04/01 00:37:22;;;;;;;23.63;14.25;;;;;;;17.50;37.92;101279.00;349665;28;1144;-67
2021/04/01 00:37:34;;;;;;;25.60;14.60;;;;;;;17.50;38.04;101270.97;349588;28;1150;-65
2021/04/01 00:37:45;;;;;;;25.27;14.93;;;;;;;17.52;37.97;101279.75;349515;28;1290;-66
2021/04/01 00:37:57;;;;;;;24.88;14.90;;;;;;;17.52;37.79;101273.59;349564;28;1065;-66
2021/04/01 00:38:09;;;;;;;27.05;15.05;;;;;;;17.52;37.71;101279.75;349592;28;1106;-66
2021/04/01 00:38:20;;;;;;;26.45;15.10;;;;;;;17.54;37.87;101277.81;349501;28;3179;-66
2021/04/01 00:38:32;;;;;;;24.80;14.50;;;;;;;17.53;37.55;101276.13;349598;28;1064;-66
2021/04/01 00:38:43;;;;;;;24.13;14.10;;;;;;;17.55;37.70;101273.38;349372;28;1223;-65
2021/04/01 00:38:54;;;;;;;24.48;14.27;;;;;;;17.56;37.77;101277.75;346636;28;2194;-66
2021/04/01 00:39:06;;;;;;;27.38;14.55;;;;;;;17.54;37.50;101282.31;346770;28;1161;-66
2021/04/01 00:39:17;;;;;;;28.42;14.63;;;;;;;17.55;37.75;101284.03;346709;28;1137;-66
2021/04/01 00:39:28;;;;;;;28.23;14.68;;;;;;;17.52;37.94;101277.09;347056;28;1673;-66
2021/04/01 00:39:39;;;;;;;27.92;14.88;;;;;;;17.53;38.18;101280.59;347434;28;1981;-66
2021/04/01 00:39:50;;;;;;;26.45;14.75;;;;;;;17.53;37.92;101273.47;346653;28;1099;-66
2021/04/01 00:40:03;;;;;;;27.33;14.70;;;;;;;17.52;37.46;101281.59;346694;28;1126;-65
2021/04/01 00:40:14;;;;;;;27.45;14.82;;;;;;;17.51;37.79;101280.72;348090;28;1134;-66
2021/04/01 00:40:26;;;;;;;24.50;14.38;;;;;;;17.52;37.78;101281.59;348114;28;1128;-65
2021/04/01 00:40:37;;;;;;;24.48;14.32;;;;;;;17.51;37.41;101277.19;347971;28;1065;-66
2021/04/01 00:40:48;;;;;;;26.55;14.90;;;;;;;17.52;38.11;101281.59;348345;28;1076;-66
2021/04/01 00:41:00;;;;;;;26.80;14.77;;;;;;;17.55;37.91;101284.03;349510;28;1057;-66
2021/04/01 00:41:11;;;;;;;30.52;14.95;;;;;;;17.53;37.41;101280.59;349500;28;1325;-66
2021/04/01 00:41:22;;;;;;;30.23;15.07;;;;;;;17.53;37.94;101281.47;349466;28;1136;-66
2021/04/01 00:41:33;;;;;;;27.80;15.23;;;;;;;17.52;37.95;101278.91;349730;28;1131;-66
2021/04/01 00:41:44;;;;;;;26.13;15.18;;;;;;;17.53;37.78;101283.28;350844;28;1310;-66
2021/04/01 00:41:56;;;;;;;25.95;14.98;;;;;;;17.51;38.27;101274.53;350759;28;1181;-66
2021/04/01 00:42:07;;;;;;;25.33;14.73;;;;;;;17.48;38.00;101275.59;350850;28;1146;-66
2021/04/01 00:42:18;;;;;;;25.63;14.63;;;;;;;17.49;38.03;101279.09;350916;28;1085;-65
2021/04/01 00:42:29;;;;;;;27.95;14.75;;;;;;;17.49;38.51;101279.09;350737;28;1322;-66
2021/04/01 00:42:40;;;;;;;27.88;14.50;;;;;;;17.49;38.45;101276.44;350753;28;1115;-66
2021/04/01 00:42:52;;;;;;;26.70;14.43;;;;;;;17.49;38.38;101276.44;350831;28;1049;-65
2021/04/01 00:43:04;;;;;;;25.08;14.30;;;;;;;17.48;38.14;101280.94;350774;28;1120;-66
2021/04/01 00:43:15;;;;;;;24.52;14.43;;;;;;;17.49;37.96;101279.97;350884;28;1143;-66
2021/04/01 00:43:26;;;;;;;24.13;14.02;;;;;;;17.49;38.19;101282.66;350780;28;1168;-66
2021/04/01 00:43:37;;;;;;;24.70;13.90;;;;;;;17.49;38.15;101279.97;350949;28;1170;-66
2021/04/01 00:43:49;;;;;;;25.52;13.63;;;;;;;17.50;38.17;101280.81;350929;28;1135;-65
2021/04/01 00:44:05;;;;;;;24.75;13.30;;;;;;;17.51;38.12;101282.53;350803;28;1178;-65
2021/04/01 00:44:17;;;;;;;25.44;13.54;;;;;;;17.49;38.07;101282.66;349232;28;48140;-65
2021/04/01 00:44:28;;;;;;;24.77;13.80;;;;;;;17.48;37.99;101274.75;350793;28;1260;-65
2021/04/01 00:44:42;;;;;;;24.42;13.70;;;;;;;17.48;38.05;101277.41;350905;28;1032;-65
2021/04/01 00:44:59;;;;;;;25.10;13.95;;;;;;;17.45;38.01;101282.00;350804;28;1871;-65
2021/04/01 00:45:13;;;;;;;25.98;13.95;;;;;;;17.44;37.61;101282.94;347684;28;71230;-66
2021/04/01 00:45:24;;;;;;;24.98;13.40;;;;;;;17.43;38.16;101275.91;348769;28;24241;-65
2021/04/01 00:45:35;;;;;;;24.50;13.38;;;;;;;17.44;38.28;101280.28;349635;28;1111;-65
2021/04/01 00:45:47;;;;;;;23.80;13.80;;;;;;;17.42;37.99;101271.53;349619;28;1064;-65
2021/04/01 00:45:58;;;;;;;23.75;13.98;;;;;;;17.44;38.23;101280.28;349411;28;1894;-66
2021/04/01 00:46:10;;;;;;;22.52;13.82;;;;;;;17.41;38.02;101280.50;350776;28;1147;-65
2021/04/01 00:46:21;;;;;;;23.90;13.60;;;;;;;17.39;38.07;101277.09;350890;28;989;-65
2021/04/01 00:46:32;;;;;;;23.80;13.35;;;;;;;17.39;38.29;101276.22;350835;28;1128;-66
2021/04/01 00:46:50;;;;;;;22.05;13.00;;;;;;;17.35;38.05;101286.25;350872;28;1216;-65
2021/04/01 00:47:06;;;;;;;20.42;12.98;;;;;;;17.36;38.02;101281.75;348415;28;71817;-65
2021/04/01 00:47:40;;;;;;;23.38;12.25;;;;;;;17.42;38.47;101287.53;349802;28;33220;-65
2021/04/01 00:47:53;;;;;;;24.95;13.10;;;;;;;17.42;38.47;101281.31;348471;28;70975;-65
2021/04/01 00:48:04;;;;;;;25.80;13.07;;;;;;;17.39;38.26;101279.75;350404;28;1144;-66
2021/04/01 00:48:15;;;;;;;23.52;12.45;;;;;;;17.25;37.59;101285.16;349664;28;1174;-65
2021/04/01 00:48:26;;;;;;;20.98;12.25;;;;;;;17.16;37.69;101283.06;349576;28;1154;-66
2021/04/01 00:48:38;;;;;;;21.46;11.94;;;;;;;17.20;38.14;101288.13;349538;28;1130;-65
2021/04/01 00:48:49;;;;;;;20.83;11.88;;;;;;;17.22;38.39;101290.69;349542;28;1228;-65
2021/04/01 00:49:00;;;;;;;20.92;11.77;;;;;;;17.23;38.46;101271.91;349404;28;1157;-65
2021/04/01 00:49:11;;;;;;;19.75;11.98;;;;;;;17.25;38.41;101280.66;349626;28;1025;-65
2021/04/01 00:49:22;;;;;;;21.25;12.10;;;;;;;17.26;38.28;101281.53;349575;28;1244;-65
2021/04/01 00:49:36;;;;;;;22.08;11.88;;;;;;;17.25;38.35;101279.81;349476;28;1128;-65
2021/04/01 00:49:47;;;;;;;20.95;11.55;;;;;;;17.21;38.43;101281.81;348685;28;23849;-66
2021/04/01 00:49:58;;;;;;;22.08;11.77;;;;;;;17.15;38.24;101282.25;349314;28;1143;-66
2021/04/01 00:50:17;;;;;;;21.45;11.88;;;;;;;17.16;38.55;101278.63;349723;28;1676;-66
2021/04/01 00:50:30;;;;;;;22.13;11.50;;;;;;;17.06;38.19;101278.38;346222;28;94996;-65
2021/04/01 00:50:42;;;;;;;22.67;11.68;;;;;;;17.03;38.05;101275.03;349473;28;1215;-65
2021/04/01 00:50:53;;;;;;;21.73;11.85;;;;;;;17.06;38.08;101281.03;349354;28;1157;-65
2021/04/01 00:51:04;;;;;;;20.05;11.70;;;;;;;16.91;38.59;101282.91;349429;28;1089;-66
2021/04/01 00:51:15;;;;;;;20.38;11.95;;;;;;;16.87;38.11;101283.16;349472;28;1152;-65
2021/04/01 00:51:27;;;;;;;21.02;11.93;;;;;;;16.90;38.75;101280.34;349468;28;1085;-65
2021/04/01 00:51:38;;;;;;;22.25;11.82;;;;;;;16.90;37.83;101281.19;349606;28;1200;-65
2021/04/01 00:51:49;;;;;;;22.73;11.52;;;;;;;16.93;38.37;101280.13;349429;28;1134;-65
2021/04/01 00:52:00;;;;;;;21.80;11.32;;;;;;;16.98;38.42;101278.03;349557;28;1085;-65
2021/04/01 00:52:11;;;;;;;20.65;11.07;;;;;;;16.99;38.53;101276.19;349425;28;1100;-65
2021/04/01 00:52:24;;;;;;;20.48;11.32;;;;;;;17.00;38.65;101275.25;349399;28;957;-65
2021/04/01 00:52:36;;;;;;;22.10;11.45;;;;;;;17.02;38.85;101271.53;349465;28;1089;-65
2021/04/01 00:52:47;;;;;;;21.63;11.43;;;;;;;17.05;38.67;101287.31;349372;28;1144;-65
2021/04/01 00:53:16;;;;;;;18.52;11.82;;;;;;;16.96;38.30;101277.25;348360;28;33177;-65
2021/04/01 00:53:27;;;;;;;19.15;11.27;;;;;;;16.99;38.68;101287.72;349422;28;1172;-65
2021/04/01 00:53:39;;;;;;;19.45;11.43;;;;;;;17.01;38.86;101271.59;349341;28;1209;-65
2021/04/01 00:53:50;;;;;;;19.77;11.55;;;;;;;17.03;38.14;101277.72;349442;28;1138;-65
2021/04/01 00:54:01;;;;;;;18.75;11.48;;;;;;;17.01;38.12;101271.59;349430;28;1073;-65
2021/04/01 00:54:12;;;;;;;18.35;11.27;;;;;;;16.99;38.35;101274.38;349560;28;1022;-65
2021/04/01 00:54:23;;;;;;;18.60;11.15;;;;;;;16.98;38.27;101278.03;349374;28;1783;-65
2021/04/01 00:54:36;;;;;;;20.83;11.30;;;;;;;16.98;38.27;101277.16;349393;28;1180;-65
2021/04/01 00:54:47;;;;;;;23.58;11.72;;;;;;;17.02;38.32;101273.31;349468;28;1056;-65
2021/04/01 00:54:58;;;;;;;23.58;12.00;;;;;;;17.01;38.37;101283.16;349427;28;1180;-65
2021/04/01 00:55:10;;;;;;;22.13;11.85;;;;;;;16.90;37.89;101272.34;349453;28;1201;-65
2021/04/01 00:55:22;;;;;;;20.13;11.68;;;;;;;16.91;38.38;101276.69;349515;28;1105;-66
2021/04/01 00:55:33;;;;;;;18.23;11.15;;;;;;;16.95;38.81;101273.75;349380;28;1080;-66
2021/04/01 00:55:44;;;;;;;18.25;11.43;;;;;;;16.98;38.58;101271.81;349423;28;1126;-65
2021/04/01 00:55:55;;;;;;;19.05;11.48;;;;;;;16.99;38.59;101277.03;349459;28;1077;-65
2021/04/01 00:56:07;;;;;;;19.08;11.18;;;;;;;17.03;38.38;101267.03;349357;28;1102;-65
2021/04/01 00:56:20;;;;;;;19.85;10.85;;;;;;;17.04;38.41;101269.59;348468;28;1077;-65
2021/04/01 00:56:32;;;;;;;18.92;11.00;;;;;;;17.05;38.23;101273.97;349400;28;1136;-65
2021/04/01 00:56:43;;;;;;;20.38;11.43;;;;;;;17.08;38.85;101280.94;348092;28;1122;-65
2021/04/01 00:56:54;;;;;;;21.48;11.65;;;;;;;17.07;38.74;101274.72;348043;28;1221;-64
2021/04/01 00:57:06;;;;;;;21.35;11.88;;;;;;;17.07;38.71;101274.72;348022;28;1215;-65
2021/04/01 00:57:17;;;;;;;20.27;11.48;;;;;;;17.06;38.47;101275.72;348079;28;1131;-65
2021/04/01 00:57:28;;;;;;;18.65;11.02;;;;;;;17.08;38.68;101279.13;347946;28;1128;-65
2021/04/01 00:57:46;;;;;;;19.08;11.05;;;;;;;17.11;38.97;101273.56;348099;28;1148;-65
2021/04/01 00:57:59;;;;;;;20.20;11.05;;;;;;;17.05;38.50;101273.97;345704;28;70778;-65
2021/04/01 00:58:11;;;;;;;18.88;11.15;;;;;;;17.07;38.46;101276.53;348153;28;1124;-65
2021/04/01 00:58:40;;;;;;;19.40;11.52;;;;;;;17.04;38.34;101266.09;347746;28;33301;-65
2021/04/01 00:58:53;;;;;;;19.17;11.20;;;;;;;17.04;38.33;101266.09;349458;28;1068;-65
2021/04/01 00:59:06;;;;;;;20.42;11.32;;;;;;;17.05;38.71;101273.09;348093;28;1168;-65
2021/04/01 00:59:18;;;;;;;22.27;12.18;;;;;;;17.06;38.69;101273.03;347963;28;1157;-65